Time;durP1;ratioP1;P1;durP2;ratioP2;P2;SDS_P1;SDS_P2;PMS_P1;PMS_P2;Temp;Humidity;BMP_temperature;BMP_pressure;BME280_temperature;BME280_humidity;BME280_pressure;Samples;Min_cycle;Max_cycle;Signal;HPM_P1;HPM_P2
2022/11/13 00:01:27;;;;;;;79.00;45.38;;;;;;;3.18;87.22;102550.03;7396420;19;20094;-68
2022/11/13 00:03:56;;;;;;;78.20;45.58;;;;;;;3.18;87.52;102553.50;7395677;19;20018;-67
2022/11/13 00:06:24;;;;;;;72.35;45.35;;;;;;;3.18;87.41;102552.66;7396510;19;20027;-68
2022/11/13 00:08:59;;;;;;;78.30;45.13;;;;;;;3.16;87.27;102544.81;7396359;19;20071;-69
2022/11/13 00:11:34;;;;;;;88.13;40.45;;;;;;;3.18;87.31;102552.66;7396674;19;20031;-68
2022/11/13 00:14:03;;;;;;;91.22;36.55;;;;;;;3.16;87.39;102549.09;7395825;19;20074;-67
2022/11/13 00:16:34;;;;;;;84.20;36.58;;;;;;;3.14;87.61;102550.78;7396163;19;20090;-68
2022/11/13 00:19:02;;;;;;;95.43;35.15;;;;;;;3.12;87.96;102547.22;7395302;19;20014;-68
2022/11/13 00:21:31;;;;;;;104.20;33.60;;;;;;;3.09;88.12;102554.03;7395419;19;20073;-68
2022/11/13 00:23:59;;;;;;;101.05;35.75;;;;;;;3.06;88.12;102559.13;7394535;19;20074;-68
2022/11/13 00:26:29;;;;;;;99.38;41.58;;;;;;;3.01;88.42;102555.47;7396277;19;20086;-68
2022/11/13 00:29:00;;;;;;;106.15;40.10;;;;;;;2.95;88.58;102555.25;7396144;19;20078;-68
2022/11/13 00:31:30;;;;;;;85.47;36.33;;;;;;;2.94;88.55;102558.66;7396208;19;20082;-68
2022/11/13 00:34:02;;;;;;;75.80;33.88;;;;;;;2.87;88.71;102552.34;7394589;19;20017;-69
2022/11/13 00:36:30;;;;;;;78.20;33.17;;;;;;;2.84;88.67;102549.63;7395910;19;20021;-68
2022/11/13 00:38:59;;;;;;;79.50;30.67;;;;;;;2.81;88.98;102548.66;7395499;19;20019;-68
2022/11/13 00:41:27;;;;;;;91.30;26.90;;;;;;;2.77;88.83;102553.69;7394914;19;20082;-68
2022/11/13 00:43:56;;;;;;;66.90;26.73;;;;;;;2.74;89.14;102542.31;7394364;19;20090;-68
2022/11/13 00:46:24;;;;;;;87.88;28.35;;;;;;;2.72;89.21;102541.38;7394839;19;20561;-68
2022/11/13 00:48:53;;;;;;;72.15;26.52;;;;;;;2.68;89.21;102544.66;7395182;19;20423;-68
2022/11/13 00:51:24;;;;;;;91.57;26.40;;;;;;;2.64;89.38;102540.19;7394390;19;20077;-68
2022/11/13 00:53:52;;;;;;;83.32;25.63;;;;;;;2.61;89.41;102533.16;7393487;19;20041;-67
2022/11/13 00:56:20;;;;;;;73.13;24.85;;;;;;;2.57;89.40;102541.66;7395063;19;20025;-68
2022/11/13 00:58:49;;;;;;;54.05;23.52;;;;;;;2.53;89.23;102544.94;7393345;19;20022;-68
2022/11/13 01:01:20;;;;;;;54.53;23.05;;;;;;;2.50;89.33;102539.63;7393213;19;20019;-68
2022/11/13 01:03:48;;;;;;;62.13;24.60;;;;;;;2.48;89.42;102542.16;7393228;19;20075;-68
2022/11/13 01:06:19;;;;;;;61.60;25.73;;;;;;;2.46;89.66;102548.09;7399414;19;20086;-69
2022/11/13 01:08:51;;;;;;;56.83;25.45;;;;;;;2.42;89.71;102541.91;7402590;19;20418;-69
2022/11/13 01:11:23;;;;;;;58.72;23.30;;;;;;;2.39;89.60;102537.50;7400274;19;20015;-69
2022/11/13 01:13:52;;;;;;;62.58;24.13;;;;;;;2.38;89.58;102540.03;7400737;19;20425;-68
2022/11/13 01:16:23;;;;;;;41.60;21.90;;;;;;;2.35;89.55;102540.78;7402525;19;20081;-67
2022/11/13 01:18:52;;;;;;;47.88;23.02;;;;;;;2.36;89.66;102532.16;7399429;19;20089;-68
2022/11/13 01:21:23;;;;;;;42.28;21.75;;;;;;;2.36;89.58;102539.06;7401882;19;20425;-67
2022/11/13 01:23:55;;;;;;;36.17;21.73;;;;;;;2.37;89.82;102543.44;7401139;19;20082;-68
2022/11/13 01:26:26;;;;;;;40.67;22.90;;;;;;;2.38;89.81;102533.13;7401859;19;20018;-68
2022/11/13 01:28:55;;;;;;;44.03;22.92;;;;;;;2.38;89.98;102530.53;7402614;19;20066;-68
2022/11/13 01:31:32;;;;;;;39.67;22.23;;;;;;;2.39;89.74;102532.31;7402087;19;20085;-68
2022/11/13 01:34:00;;;;;;;49.45;22.60;;;;;;;2.37;89.91;102526.16;7400618;19;20078;-69
2022/11/13 01:36:30;;;;;;;50.83;22.70;;;;;;;2.43;89.76;102528.16;7402189;19;20081;-68
2022/11/13 01:39:01;;;;;;;49.65;23.02;;;;;;;2.42;89.76;102526.38;7401838;19;20081;-68
2022/11/13 01:41:32;;;;;;;47.13;22.88;;;;;;;2.42;89.67;102516.88;7400921;19;20544;-68
2022/11/13 01:44:02;;;;;;;36.88;20.90;;;;;;;2.42;90.09;102526.38;7398523;19;20085;-69
2022/11/13 01:46:32;;;;;;;41.92;22.58;;;;;;;2.43;90.09;102513.47;7401636;19;20015;-68
2022/11/13 01:49:14;;;;;;;37.15;20.15;;;;;;;2.44;89.89;102507.47;7398530;19;20013;-70
2022/11/13 01:51:46;;;;;;;37.50;22.65;;;;;;;2.46;90.08;102519.59;7401555;19;20427;-70
2022/11/13 01:54:22;;;;;;;37.42;22.08;;;;;;;2.46;89.99;102517.03;7398835;19;20454;-67
2022/11/13 01:56:52;;;;;;;37.13;20.92;;;;;;;2.47;90.22;102508.44;7401792;19;20022;-68
2022/11/13 01:59:24;;;;;;;37.67;21.17;;;;;;;2.47;90.34;102506.72;7400723;19;20481;-70
2022/11/13 02:01:53;;;;;;;36.92;22.05;;;;;;;2.50;90.42;102511.13;7400264;19;20074;-69
2022/11/13 02:04:21;;;;;;;38.40;22.25;;;;;;;2.50;90.08;102495.59;7399095;19;20090;-70
2022/11/13 02:06:53;;;;;;;37.17;21.45;;;;;;;2.51;90.25;102506.00;7400953;19;20090;-70
2022/11/13 02:09:26;;;;;;;35.75;21.35;;;;;;;2.52;90.34;102501.72;7400592;19;20082;-70
2022/11/13 02:11:56;;;;;;;38.03;21.40;;;;;;;2.53;90.38;102503.50;7398642;19;20078;-69
2022/11/13 02:14:27;;;;;;;37.15;21.58;;;;;;;2.52;90.12;102497.41;7398626;19;20078;-69
2022/11/13 02:17:00;;;;;;;37.40;22.48;;;;;;;2.53;90.34;102499.19;7399233;19;20422;-71
2022/11/13 02:19:33;;;;;;;42.08;22.75;;;;;;;2.54;90.30;102495.78;7398109;19;20074;-71
2022/11/13 02:22:09;;;;;;;38.53;23.17;;;;;;;2.54;90.34;102489.69;7400123;19;20078;-70
2022/11/13 02:24:43;;;;;;;34.78;22.20;;;;;;;2.54;90.13;102495.78;7398622;19;20015;-70
2022/11/13 02:27:18;;;;;;;41.58;23.17;;;;;;;2.56;90.07;102498.41;7399944;19;20553;-69
2022/11/13 02:29:47;;;;;;;37.28;22.85;;;;;;;2.55;90.06;102488.88;7399579;19;20619;-70
2022/11/13 02:32:15;;;;;;;38.20;22.15;;;;;;;2.57;90.34;102492.41;7400070;19;20078;-69
2022/11/13 02:34:43;;;;;;;39.10;22.33;;;;;;;2.57;90.07;102479.47;7397386;19;20424;-69
2022/11/13 02:37:12;;;;;;;39.95;22.30;;;;;;;2.59;90.32;102486.47;7399958;19;20070;-69
2022/11/13 02:39:43;;;;;;;37.78;22.38;;;;;;;2.61;90.09;102479.63;7399397;19;20073;-70
2022/11/13 02:42:12;;;;;;;35.00;21.50;;;;;;;2.64;90.12;102476.28;7399387;19;20066;-69
2022/11/13 02:44:40;;;;;;;33.00;21.77;;;;;;;2.67;90.04;102479.00;7397256;19;20385;-69
2022/11/13 02:47:08;;;;;;;36.63;21.80;;;;;;;2.70;90.48;102480.81;7399607;19;20078;-69
2022/11/13 02:49:37;;;;;;;39.33;21.17;;;;;;;2.71;90.32;102470.50;7399593;19;20014;-70
2022/11/13 02:52:06;;;;;;;36.88;20.65;;;;;;;2.74;90.10;102462.88;7399465;19;20422;-70
2022/11/13 02:54:34;;;;;;;35.08;21.02;;;;;;;2.77;90.45;102468.16;7397508;19;20094;-69
2022/11/13 02:57:05;;;;;;;33.67;21.38;;;;;;;2.82;90.44;102462.25;7398815;19;20078;-68
2022/11/13 02:59:34;;;;;;;35.70;21.67;;;;;;;2.84;90.17;102458.00;7399413;19;20095;-68
2022/11/13 03:02:02;;;;;;;35.10;21.10;;;;;;;2.88;90.30;102465.06;7396486;19;20082;-69
2022/11/13 03:04:31;;;;;;;34.70;21.27;;;;;;;2.90;90.39;102459.13;7397339;19;20094;-71
2022/11/13 03:06:59;;;;;;;37.35;21.60;;;;;;;2.94;90.21;102454.94;7398661;19;20516;-71
2022/11/13 03:09:27;;;;;;;36.30;22.58;;;;;;;2.98;90.52;102446.44;7399031;19;20086;-70
2022/11/13 03:11:56;;;;;;;37.08;20.48;;;;;;;3.02;90.25;102448.34;7398813;19;20090;-71
2022/11/13 03:14:27;;;;;;;35.83;21.13;;;;;;;3.06;90.23;102445.03;7396679;19;20544;-69
2022/11/13 03:16:55;;;;;;;35.42;21.00;;;;;;;3.08;90.47;102439.88;7399144;19;20070;-70
2022/11/13 03:19:24;;;;;;;34.03;20.00;;;;;;;3.12;90.39;102426.19;7396415;19;20081;-70
2022/11/13 03:21:52;;;;;;;38.35;21.20;;;;;;;3.18;90.57;102433.31;7396011;19;20082;-68
2022/11/13 03:24:21;;;;;;;39.95;22.15;;;;;;;3.23;90.65;102434.38;7396945;19;20088;-69
2022/11/13 03:26:49;;;;;;;35.10;21.20;;;;;;;3.28;90.57;102424.16;7398358;19;20082;-70
2022/11/13 03:29:18;;;;;;;43.83;26.67;;;;;;;3.32;90.61;102424.31;7398368;19;20070;-71
2022/11/13 03:31:49;;;;;;;36.13;22.65;;;;;;;3.37;90.62;102420.16;7398226;19;20018;-70
2022/11/13 03:34:17;;;;;;;35.33;21.23;;;;;;;3.41;90.79;102421.16;7396265;19;20096;-69
2022/11/13 03:36:46;;;;;;;37.25;22.40;;;;;;;3.47;90.73;102417.91;7396060;19;20081;-68
2022/11/13 03:39:14;;;;;;;37.35;21.55;;;;;;;3.53;90.89;102418.13;7397406;19;20010;-69
2022/11/13 03:41:43;;;;;;;36.35;21.13;;;;;;;3.57;91.08;102420.84;7397837;19;20086;-69
2022/11/13 03:44:11;;;;;;;38.40;21.42;;;;;;;3.64;91.21;102421.97;7395234;19;20090;-69
2022/11/13 03:46:40;;;;;;;37.17;21.67;;;;;;;3.69;91.13;102411.72;7397690;19;20015;-69
2022/11/13 03:49:11;;;;;;;40.60;22.58;;;;;;;3.75;91.54;102415.41;7397566;19;20094;-69
2022/11/13 03:51:39;;;;;;;37.75;21.30;;;;;;;3.81;91.37;102412.13;7397936;19;20082;-70
2022/11/13 03:54:08;;;;;;;36.50;21.10;;;;;;;3.85;91.66;102413.13;7395018;19;20560;-69
2022/11/13 03:56:36;;;;;;;33.92;20.50;;;;;;;3.87;91.50;102409.75;7397375;19;20089;-69
2022/11/13 03:59:04;;;;;;;32.38;19.65;;;;;;;3.90;91.67;102412.44;7396881;19;20548;-70
2022/11/13 04:01:33;;;;;;;29.92;19.33;;;;;;;3.91;91.72;102414.19;7395444;19;20094;-69
2022/11/13 04:04:02;;;;;;;31.70;20.05;;;;;;;3.93;91.91;102414.28;7395223;19;20023;-68
2022/11/13 04:06:33;;;;;;;32.17;20.25;;;;;;;3.95;92.00;102415.19;7396597;19;20032;-69
2022/11/13 04:09:01;;;;;;;34.40;20.73;;;;;;;3.97;91.67;102412.63;7396959;19;20074;-70
2022/11/13 04:11:30;;;;;;;34.65;21.05;;;;;;;4.00;92.06;102412.75;7396516;19;20429;-70
2022/11/13 04:13:58;;;;;;;34.75;20.98;;;;;;;4.02;91.75;102417.16;7394714;19;20090;-70
2022/11/13 04:16:26;;;;;;;33.35;20.83;;;;;;;4.07;91.85;102412.13;7394496;19;20489;-69
2022/11/13 04:18:56;;;;;;;31.83;20.20;;;;;;;4.10;91.82;102403.53;7395110;19;20093;-70
2022/11/13 04:21:24;;;;;;;34.92;20.27;;;;;;;4.13;91.88;102393.22;7394880;19;20035;-70
2022/11/13 04:23:55;;;;;;;33.17;20.52;;;;;;;4.17;92.08;102401.16;7394975;19;20018;-69
2022/11/13 04:26:24;;;;;;;31.48;20.58;;;;;;;4.20;92.06;102400.38;7396817;19;20091;-70
2022/11/13 04:28:52;;;;;;;32.63;20.40;;;;;;;4.23;91.87;102400.47;7396251;19;20082;-70
2022/11/13 04:31:21;;;;;;;33.10;20.60;;;;;;;4.27;92.08;102407.50;7396145;19;20027;-69
2022/11/13 04:33:49;;;;;;;33.35;20.08;;;;;;;4.30;91.90;102399.84;7395186;19;20089;-68
2022/11/13 04:36:24;;;;;;;36.65;20.33;;;;;;;4.34;92.04;102398.22;7395667;19;20070;-69
2022/11/13 04:38:55;;;;;;;31.70;20.75;;;;;;;4.36;92.19;102393.94;7395542;19;20561;-68
2022/11/13 04:44:04;;;;;;;37.10;21.88;;;;;;;4.42;92.04;102409.72;7394896;19;20018;-68
2022/11/13 04:46:33;;;;;;;33.05;20.70;;;;;;;4.45;92.30;102408.91;7395692;19;20045;-69
2022/11/13 04:49:01;;;;;;;34.00;22.35;;;;;;;4.49;92.23;102416.88;7395246;19;20050;-69
2022/11/13 04:51:30;;;;;;;35.28;21.60;;;;;;;4.50;92.05;102409.94;7394973;19;20553;-69
2022/11/13 04:54:01;;;;;;;33.92;21.05;;;;;;;4.56;92.26;102415.31;7393651;19;20018;-69
2022/11/13 04:56:29;;;;;;;33.83;21.42;;;;;;;4.60;92.23;102421.50;7395874;19;20022;-69
2022/11/13 04:58:58;;;;;;;34.72;21.20;;;;;;;4.62;92.28;102414.66;7393106;19;20069;-68
2022/11/13 05:01:26;;;;;;;36.15;22.27;;;;;;;4.65;92.46;102423.41;7395016;19;20019;-69
2022/11/13 05:03:55;;;;;;;36.35;22.58;;;;;;;4.67;92.26;102416.53;7393334;19;20014;-68
2022/11/13 05:06:23;;;;;;;37.78;22.13;;;;;;;4.70;92.55;102421.84;7393162;19;20094;-69
2022/11/13 05:08:52;;;;;;;37.75;23.98;;;;;;;4.73;92.58;102421.91;7393400;19;20035;-69
2022/11/13 05:11:23;;;;;;;38.20;22.52;;;;;;;4.74;92.57;102415.00;7393343;19;20098;-69
2022/11/13 05:13:51;;;;;;;36.75;22.83;;;;;;;4.77;92.71;102409.00;7394260;19;20035;-68
2022/11/13 05:16:20;;;;;;;35.17;22.98;;;;;;;4.78;92.74;102403.84;7394989;19;20092;-69
2022/11/13 05:18:54;;;;;;;38.45;23.73;;;;;;;4.78;92.66;102402.94;7392099;19;20082;-69
2022/11/13 05:21:23;;;;;;;42.10;25.95;;;;;;;4.83;92.78;102404.00;7395124;19;20070;-69
2022/11/13 05:23:51;;;;;;;43.25;25.38;;;;;;;4.86;92.86;102402.34;7392871;19;20082;-68
2022/11/13 05:26:23;;;;;;;49.70;26.08;;;;;;;4.91;92.94;102399.88;7394296;19;20580;-69
2022/11/13 05:28:51;;;;;;;42.17;25.58;;;;;;;4.94;92.86;102389.56;7394437;19;20549;-69
2022/11/13 05:31:19;;;;;;;43.15;25.10;;;;;;;4.98;93.08;102383.63;7395239;19;20098;-68
2022/11/13 05:33:48;;;;;;;45.03;25.95;;;;;;;5.03;93.26;102392.41;7394198;19;20023;-68
2022/11/13 05:36:19;;;;;;;40.83;24.80;;;;;;;5.07;93.04;102382.97;7395265;19;20036;-69
2022/11/13 05:38:47;;;;;;;46.60;26.10;;;;;;;5.11;93.41;102376.16;7394744;19;20482;-68
2022/11/13 05:41:17;;;;;;;45.72;26.83;;;;;;;5.13;93.15;102372.75;7393998;19;20549;-69
2022/11/13 05:43:49;;;;;;;47.38;25.98;;;;;;;5.16;93.42;102364.16;7393473;19;20097;-67
2022/11/13 05:46:20;;;;;;;47.45;26.33;;;;;;;5.22;93.66;102372.13;7394627;19;20086;-69
2022/11/13 05:48:50;;;;;;;50.63;27.35;;;;;;;5.26;93.81;102360.94;7394424;19;20026;-69
2022/11/13 05:51:20;;;;;;;51.65;29.10;;;;;;;5.31;94.08;102356.72;7394033;19;20090;-69
2022/11/13 05:53:49;;;;;;;53.75;29.70;;;;;;;5.36;93.84;102352.53;7397977;19;20520;-69
2022/11/13 05:56:20;;;;;;;54.40;29.67;;;;;;;5.41;93.99;102347.44;7401029;19;20086;-69
2022/11/13 05:58:52;;;;;;;55.83;30.77;;;;;;;5.47;94.11;102349.31;7401227;19;20110;-68
2022/11/13 06:01:23;;;;;;;53.50;28.65;;;;;;;5.50;94.10;102358.06;7401621;19;20074;-69
2022/11/13 06:03:52;;;;;;;52.40;29.65;;;;;;;5.55;94.13;102355.59;7399091;19;20070;-70
2022/11/13 06:06:23;;;;;;;55.03;28.73;;;;;;;5.59;94.27;102362.63;7400514;19;20090;-69
2022/11/13 06:08:52;;;;;;;53.42;28.13;;;;;;;5.62;94.22;102352.28;7401128;19;20087;-70
2022/11/13 06:11:22;;;;;;;55.70;30.10;;;;;;;5.66;94.34;102351.53;7400705;19;20031;-69
2022/11/13 06:13:55;;;;;;;52.88;30.17;;;;;;;5.69;94.42;102355.94;7399698;19;20078;-69
2022/11/13 06:16:26;;;;;;;52.53;29.48;;;;;;;5.73;94.46;102354.28;7400958;19;20019;-71
2022/11/13 06:18:57;;;;;;;58.83;30.27;;;;;;;5.76;94.63;102351.75;7397935;19;20090;-69
2022/11/13 06:21:27;;;;;;;53.55;29.23;;;;;;;5.78;94.73;102348.34;7397797;19;20018;-69
2022/11/13 06:23:56;;;;;;;59.50;31.05;;;;;;;5.82;94.76;102341.47;7399144;19;20088;-69
2022/11/13 06:26:26;;;;;;;58.08;31.40;;;;;;;5.85;94.73;102350.25;7397913;19;20022;-70
2022/11/13 06:28:57;;;;;;;56.72;32.33;;;;;;;5.88;95.01;102345.09;7399834;19;20418;-69
2022/11/13 06:31:28;;;;;;;56.17;31.58;;;;;;;5.93;95.01;102349.56;7400517;19;20023;-69
2022/11/13 06:33:57;;;;;;;58.67;32.25;;;;;;;5.95;95.02;102340.94;7397752;19;20086;-69
2022/11/13 06:36:27;;;;;;;62.13;32.45;;;;;;;5.99;95.34;102347.09;7400086;19;20082;-69
2022/11/13 06:38:56;;;;;;;59.53;33.17;;;;;;;6.01;95.06;102341.09;7397570;19;20086;-69
2022/11/13 06:41:26;;;;;;;55.45;32.58;;;;;;;6.03;95.00;102344.63;7399423;19;20017;-70
2022/11/13 06:43:57;;;;;;;58.55;32.92;;;;;;;6.08;95.34;102339.50;7398287;19;20093;-69
2022/11/13 06:46:28;;;;;;;64.30;33.08;;;;;;;6.11;95.30;102342.19;7400124;19;20082;-69
2022/11/13 06:48:56;;;;;;;57.80;32.85;;;;;;;6.13;95.12;102340.50;7399420;19;20078;-69
2022/11/13 06:51:27;;;;;;;60.47;33.25;;;;;;;6.17;95.27;102337.09;7397214;19;20031;-69
2022/11/13 06:53:56;;;;;;;57.45;33.55;;;;;;;6.20;95.44;102331.06;7398506;19;20021;-69
2022/11/13 06:56:25;;;;;;;60.55;34.35;;;;;;;6.24;95.31;102337.25;7399351;19;20035;-69
2022/11/13 06:58:57;;;;;;;59.20;33.28;;;;;;;6.28;95.53;102344.28;7399163;19;20090;-69
2022/11/13 07:01:27;;;;;;;55.55;31.42;;;;;;;6.32;95.31;102335.69;7397342;19;20019;-68
2022/11/13 07:03:56;;;;;;;57.35;32.70;;;;;;;6.36;95.36;102335.78;7396904;19;20029;-69
2022/11/13 07:06:26;;;;;;;64.68;34.03;;;;;;;6.39;95.49;102337.56;7398663;19;20445;-69
2022/11/13 07:08:54;;;;;;;57.08;32.22;;;;;;;6.44;95.47;102341.16;7398465;19;20081;-70
2022/11/13 07:11:24;;;;;;;55.00;33.55;;;;;;;6.48;95.58;102334.28;7398912;19;20094;-70
2022/11/13 07:13:53;;;;;;;53.95;32.17;;;;;;;6.51;95.64;102332.59;7397599;19;20474;-69
2022/11/13 07:16:26;;;;;;;57.17;33.70;;;;;;;6.55;95.74;102332.69;7395943;19;20370;-70
2022/11/13 07:18:55;;;;;;;57.58;32.97;;;;;;;6.60;95.35;102333.66;7398142;19;20078;-70
2022/11/13 07:21:24;;;;;;;52.15;32.72;;;;;;;6.63;95.22;102331.97;7398976;19;20015;-69
2022/11/13 07:23:53;;;;;;;51.30;32.10;;;;;;;6.66;95.54;102325.94;7395981;19;20019;-68
2022/11/13 07:26:21;;;;;;;54.65;32.47;;;;;;;6.71;95.60;102328.66;7398636;19;20427;-70
2022/11/13 07:28:51;;;;;;;50.58;32.63;;;;;;;6.73;95.52;102321.75;7398015;19;20022;-70
2022/11/13 07:31:20;;;;;;;49.55;32.22;;;;;;;6.77;95.43;102320.94;7395621;19;20485;-70
2022/11/13 07:33:52;;;;;;;47.85;31.02;;;;;;;6.82;95.41;102325.41;7396891;19;20119;-69
2022/11/13 07:36:20;;;;;;;54.35;32.85;;;;;;;6.86;95.45;102315.88;7398266;19;20037;-70
2022/11/13 07:38:49;;;;;;;50.97;31.65;;;;;;;6.89;95.22;102323.78;7397776;19;20403;-70
2022/11/13 07:41:17;;;;;;;52.92;31.55;;;;;;;6.92;95.42;102323.84;7397822;19;20081;-69
2022/11/13 07:43:46;;;;;;;47.85;30.80;;;;;;;6.98;95.06;102328.31;7396724;19;20018;-69
2022/11/13 07:46:14;;;;;;;49.05;30.48;;;;;;;7.01;95.18;102324.03;7397700;19;20082;-68
2022/11/13 07:48:42;;;;;;;59.15;36.13;;;;;;;7.06;95.08;102325.84;7397892;19;20026;-73
2022/11/13 07:51:14;;;;;;;60.50;35.55;;;;;;;7.10;94.94;102311.97;7397499;19;20086;-72
2022/11/13 07:53:42;;;;;;;55.47;35.05;;;;;;;7.12;95.00;102313.75;7396745;19;20074;-70
2022/11/13 07:56:10;;;;;;;47.00;31.58;;;;;;;7.18;94.98;102310.41;7396888;19;20433;-72
2022/11/13 07:58:39;;;;;;;46.17;30.48;;;;;;;7.22;95.02;102311.34;7395243;19;20096;-72
2022/11/13 08:01:08;;;;;;;45.55;29.67;;;;;;;7.26;94.75;102308.78;7397119;19;20094;-72
2022/11/13 08:03:37;;;;;;;41.05;27.10;;;;;;;7.30;94.79;102308.00;7396139;19;20082;-72
2022/11/13 08:06:07;;;;;;;44.75;28.60;;;;;;;7.33;94.50;102308.03;7394837;19;20422;-72
2022/11/13 08:08:38;;;;;;;38.80;27.13;;;;;;;7.37;94.66;102314.19;7397136;19;20088;-72
2022/11/13 08:11:08;;;;;;;41.85;27.10;;;;;;;7.42;94.66;102312.53;7395492;19;20074;-72
2022/11/13 08:13:37;;;;;;;42.25;27.73;;;;;;;7.44;94.42;102303.00;7395761;19;20086;-72
2022/11/13 08:16:07;;;;;;;40.72;25.60;;;;;;;7.46;94.22;102303.91;7394308;19;20010;-71
2022/11/13 08:18:36;;;;;;;40.80;26.15;;;;;;;7.49;94.07;102303.97;7394384;19;20022;-72
2022/11/13 08:21:11;;;;;;;38.15;25.63;;;;;;;7.53;93.96;102304.88;7395151;19;20011;-72
2022/11/13 08:23:43;;;;;;;35.70;24.38;;;;;;;7.56;93.86;102301.44;7395012;19;20074;-73
2022/11/13 08:26:12;;;;;;;34.20;24.00;;;;;;;7.56;93.71;102302.31;7395140;19;20018;-72
2022/11/13 08:28:41;;;;;;;36.88;24.30;;;;;;;7.60;93.66;102306.72;7396549;19;20082;-72
2022/11/13 08:31:12;;;;;;;32.22;23.33;;;;;;;7.62;93.51;102307.63;7395843;19;20010;-72
2022/11/13 08:33:41;;;;;;;32.13;22.33;;;;;;;7.64;93.49;102303.28;7395121;19;20440;-72
2022/11/13 08:36:12;;;;;;;34.53;22.65;;;;;;;7.67;93.39;102305.06;7395759;19;20035;-72
2022/11/13 08:38:43;;;;;;;30.92;20.88;;;;;;;7.69;93.28;102303.38;7395891;19;20078;-72
2022/11/13 08:41:11;;;;;;;30.15;20.40;;;;;;;7.71;92.99;102301.69;7395634;19;20370;-72
2022/11/13 08:43:39;;;;;;;28.08;19.85;;;;;;;7.73;92.77;102296.47;7394626;19;20015;-72
2022/11/13 08:46:09;;;;;;;32.72;19.08;;;;;;;7.76;92.36;102299.13;7395108;19;20479;-72
2022/11/13 08:48:37;;;;;;;27.58;19.17;;;;;;;7.75;92.27;102303.47;7395368;19;20010;-74
2022/11/13 08:51:06;;;;;;;26.63;19.83;;;;;;;7.78;92.13;102298.28;7395432;19;20015;-71
2022/11/13 08:53:35;;;;;;;31.00;21.00;;;;;;;7.81;91.81;102297.47;7394396;19;20460;-71
2022/11/13 08:56:06;;;;;;;27.70;19.52;;;;;;;7.86;91.88;102298.41;7395298;19;20081;-72
2022/11/13 08:58:35;;;;;;;28.88;19.48;;;;;;;7.89;91.49;102301.06;7395263;19;20090;-71
2022/11/13 09:01:04;;;;;;;27.48;19.88;;;;;;;7.92;91.25;102306.34;7395222;19;20090;-72
2022/11/13 09:03:34;;;;;;;28.55;20.13;;;;;;;7.95;90.84;102305.50;7394476;19;20011;-70
2022/11/13 09:06:06;;;;;;;29.35;20.70;;;;;;;7.96;90.60;102302.03;7395099;19;20015;-72
2022/11/13 09:08:35;;;;;;;31.98;21.13;;;;;;;8.01;90.24;102296.88;7395536;19;20018;-71
2022/11/13 09:11:09;;;;;;;27.52;20.65;;;;;;;8.01;89.59;102289.88;7394575;19;20018;-72
2022/11/13 09:13:37;;;;;;;24.67;18.63;;;;;;;8.03;89.53;102296.03;7393840;19;20541;-72
2022/11/13 09:16:06;;;;;;;27.52;20.00;;;;;;;8.07;89.47;102299.56;7394910;19;20022;-72
2022/11/13 09:18:35;;;;;;;29.20;19.10;;;;;;;8.11;89.13;102297.03;7392471;19;20086;-73
2022/11/13 09:21:04;;;;;;;30.33;20.02;;;;;;;8.13;89.13;102292.69;7393325;19;20019;-72
2022/11/13 09:23:33;;;;;;;25.85;19.67;;;;;;;8.16;88.77;102289.22;7393648;19;20018;-73
2022/11/13 09:26:04;;;;;;;28.88;19.83;;;;;;;8.20;88.69;102283.19;7393053;19;20018;-71
2022/11/13 09:28:35;;;;;;;23.40;18.88;;;;;;;8.23;88.46;102291.06;7401895;19;20382;-71
2022/11/13 09:31:05;;;;;;;24.95;19.55;;;;;;;8.28;88.09;102283.28;7401714;19;20054;-71
2022/11/13 09:33:35;;;;;;;26.38;20.13;;;;;;;8.32;88.13;102275.47;7400622;19;20079;-70
2022/11/13 09:36:03;;;;;;;30.02;19.10;;;;;;;8.37;87.74;102278.16;7400828;19;20513;-72
2022/11/13 09:38:32;;;;;;;27.50;19.55;;;;;;;8.42;87.50;102268.63;7402544;19;20078;-71
2022/11/13 09:41:05;;;;;;;25.15;19.77;;;;;;;8.48;87.26;102265.25;7398904;19;20025;-72
2022/11/13 09:43:42;;;;;;;24.85;18.75;;;;;;;8.52;87.11;102268.75;7399098;19;20018;-72
2022/11/13 09:46:17;;;;;;;24.02;18.80;;;;;;;8.57;86.89;102267.97;7398286;19;20010;-72
2022/11/13 09:48:50;;;;;;;26.52;19.35;;;;;;;8.63;86.70;102265.41;7398532;19;20097;-72
2022/11/13 09:51:23;;;;;;;29.25;23.35;;;;;;;8.69;86.50;102272.44;7401995;19;20083;-73
2022/11/13 09:53:52;;;;;;;28.58;21.30;;;;;;;8.73;85.83;102261.16;7400255;19;20088;-71
2022/11/13 09:56:27;;;;;;;48.22;31.58;;;;;;;8.78;85.69;102259.47;7400875;19;20086;-73
2022/11/13 09:59:06;;;;;;;23.83;18.95;;;;;;;8.82;85.11;102257.78;7400854;19;20017;-72
2022/11/13 10:01:46;;;;;;;22.08;17.65;;;;;;;8.86;84.59;102256.94;7400912;19;20077;-73
2022/11/13 10:04:17;;;;;;;22.52;17.17;;;;;;;8.90;84.50;102261.31;7398708;19;20024;-72
2022/11/13 10:07:04;;;;;;;23.58;17.35;;;;;;;8.93;83.79;102255.22;7401280;19;20025;-71
2022/11/13 10:09:53;;;;;;;23.25;17.85;;;;;;;8.95;83.36;102254.38;7397660;19;20481;-71
2022/11/13 10:12:23;;;;;;;23.38;17.52;;;;;;;8.94;83.04;102257.84;7400785;19;20026;-71
2022/11/13 10:15:19;;;;;;;22.15;16.48;;;;;;;8.94;82.83;102255.25;7400458;19;20477;-72
2022/11/13 10:17:52;;;;;;;23.67;18.08;;;;;;;8.93;82.71;102257.84;7399769;19;20423;-71
2022/11/13 10:20:31;;;;;;;23.85;18.05;;;;;;;8.91;82.34;102257.84;7398420;19;20006;-71
2022/11/13 10:23:10;;;;;;;24.20;18.10;;;;;;;8.92;82.11;102249.13;7399993;19;20058;-72
2022/11/13 10:25:41;;;;;;;21.58;16.83;;;;;;;8.92;82.28;102243.91;7398433;19;20015;-72
2022/11/13 10:28:16;;;;;;;25.27;17.65;;;;;;;8.93;81.94;102243.03;7399331;19;20018;-71
2022/11/13 10:30:48;;;;;;;25.00;17.80;;;;;;;8.93;81.75;102243.03;7399586;19;20078;-71
2022/11/13 10:33:20;;;;;;;25.15;18.30;;;;;;;8.95;81.87;102237.81;7397307;19;20039;-72
2022/11/13 10:35:57;;;;;;;24.35;17.70;;;;;;;8.98;81.66;102232.59;7399899;19;20019;-72
2022/11/13 10:38:31;;;;;;;23.30;15.75;;;;;;;9.02;81.33;102223.91;7398280;19;20018;-72
2022/11/13 10:41:08;;;;;;;22.75;17.38;;;;;;;9.10;80.71;102231.84;7399919;19;20067;-72
2022/11/13 10:43:37;;;;;;;20.52;16.50;;;;;;;9.16;81.07;102225.75;7398633;19;20079;-71
2022/11/13 10:46:08;;;;;;;21.60;16.15;;;;;;;9.21;80.90;102226.66;7397154;19;20014;-72
2022/11/13 10:48:38;;;;;;;21.10;16.98;;;;;;;9.24;80.33;102221.47;7400141;19;20018;-71
2022/11/13 10:51:17;;;;;;;20.15;15.40;;;;;;;9.26;80.21;102215.38;7399906;19;20415;-72
2022/11/13 10:53:45;;;;;;;20.20;15.93;;;;;;;9.26;80.08;102209.25;7397806;19;20074;-73
2022/11/13 10:56:28;;;;;;;20.77;16.60;;;;;;;9.26;79.81;102210.13;7398773;19;20070;-73
2022/11/13 10:59:04;;;;;;;20.40;15.57;;;;;;;9.28;79.97;102204.91;7399262;19;20101;-73
2022/11/13 11:01:35;;;;;;;22.13;16.13;;;;;;;9.30;79.81;102203.16;7398976;19;20412;-72
2022/11/13 11:04:05;;;;;;;24.67;18.23;;;;;;;9.32;79.69;102192.72;7397245;19;20509;-71
2022/11/13 11:06:35;;;;;;;22.02;17.15;;;;;;;9.33;79.15;102200.56;7396320;19;20086;-72
2022/11/13 11:09:09;;;;;;;24.50;16.90;;;;;;;9.34;79.25;102204.06;7398918;19;20357;-72
2022/11/13 11:14:24;;;;;;;22.13;16.20;;;;;;;9.35;79.03;102198.84;7398496;19;20474;-72
2022/11/13 11:16:55;;;;;;;;;;;;;;;9.38;77.99;102203.22;7399036;19;20514;-71
2022/11/13 11:19:35;;;;;;;24.27;17.65;;;;;;;9.40;78.54;102204.09;7397575;19;19918;-72
2022/11/13 11:22:08;;;;;;;23.38;17.50;;;;;;;9.40;78.69;102201.47;7398962;19;20102;-72
2022/11/13 11:24:41;;;;;;;20.65;15.55;;;;;;;9.41;78.07;102195.38;7396286;19;20513;-73
2022/11/13 11:27:15;;;;;;;23.92;16.60;;;;;;;9.43;78.08;102196.28;7396456;19;20082;-71
2022/11/13 11:29:50;;;;;;;23.67;16.38;;;;;;;9.42;77.83;102187.53;7396285;19;20019;-72
2022/11/13 11:32:27;;;;;;;22.10;17.30;;;;;;;9.44;77.96;102182.31;7396553;19;20074;-72
2022/11/13 11:35:03;;;;;;;23.80;17.17;;;;;;;9.44;77.99;102183.19;7395519;19;20377;-71
2022/11/13 11:37:38;;;;;;;24.83;16.80;;;;;;;9.48;77.69;102173.59;7397929;19;20492;-74